createdAt,value
2022-08-05T00:00:16.259Z,98447.47
2022-08-05T00:02:50.725Z,98444.84
2022-08-05T00:06:03.030Z,98448.88
2022-08-05T00:08:30.821Z,98455.81
2022-08-05T00:10:54.126Z,98452.50
2022-08-05T00:13:20.950Z,98461.09
2022-08-05T00:16:08.478Z,98453.88
2022-08-05T00:18:38.029Z,98453.88
2022-08-05T00:21:06.873Z,98450.56
2022-08-05T00:23:46.657Z,98457.31
2022-08-05T00:26:20.953Z,98457.50
2022-08-05T00:28:50.604Z,98457.84
2022-08-05T00:31:53.986Z,98452.56
2022-08-05T00:34:56.128Z,98429.63
2022-08-05T00:37:10.421Z,98436.44
2022-08-05T00:39:41.715Z,98453.28
2022-08-05T00:42:36.783Z,98463.56
2022-08-05T00:45:08.720Z,98470.34
2022-08-05T00:47:56.676Z,98470.56
2022-08-05T00:50:25.974Z,98459.78
2022-08-05T00:52:54.923Z,98469.25
2022-08-05T00:55:22.904Z,98473.84
2022-08-05T00:57:58.012Z,98462.31
2022-08-05T01:00:28.176Z,98447.09
2022-08-05T01:02:56.941Z,98438.19
2022-08-05T01:05:25.030Z,98474.56
2022-08-05T01:08:41.291Z,98479.84
2022-08-05T01:10:54.933Z,98492.75
2022-08-05T01:13:59.099Z,98493.06
2022-08-05T01:17:09.398Z,98518.59
2022-08-05T01:20:03.749Z,98520.09
2022-08-05T01:23:23.323Z,98522.41
2022-08-05T01:26:14.506Z,98532.50
2022-08-05T01:29:18.107Z,98522.28
2022-08-05T01:31:55.108Z,98536.47
2022-08-05T01:34:47.999Z,98522.59
2022-08-05T01:37:33.099Z,98533.16
2022-08-05T01:40:06.032Z,98529.53
2022-08-05T01:42:34.736Z,98525.25
2022-08-05T01:45:03.195Z,98516.50
2022-08-05T01:47:39.208Z,98526.75
2022-08-05T01:50:15.127Z,98513.38
2022-08-05T01:52:49.991Z,98548.75
2022-08-05T01:55:20.886Z,98547.75
2022-08-05T01:58:11.650Z,98548.25
2022-08-05T02:00:42.431Z,98564.59
2022-08-05T02:03:34.180Z,98541.28
2022-08-05T02:06:33.921Z,98542.47
2022-08-05T02:08:57.897Z,98543.09
2022-08-05T02:11:33.644Z,98550.88
2022-08-05T02:14:12.611Z,98550.69
2022-08-05T02:16:52.785Z,98558.19
2022-08-05T02:19:35.003Z,98545.28
2022-08-05T02:22:26.471Z,98551.72
2022-08-05T02:25:04.018Z,98561.66
2022-08-05T02:27:59.332Z,98560.47
2022-08-05T02:30:22.483Z,98558.66
2022-08-05T02:32:54.689Z,98574.19
2022-08-05T02:35:28.314Z,98571.06
2022-08-05T02:38:02.301Z,98574.22
2022-08-05T02:40:30.918Z,98567.41
2022-08-05T02:42:59.793Z,98564.59
2022-08-05T02:45:52.848Z,98575.69
2022-08-05T02:48:17.486Z,98572.38
2022-08-05T02:50:48.403Z,98563.31
2022-08-05T02:53:18.907Z,98567.25
2022-08-05T02:55:54.009Z,98580.81
2022-08-05T02:58:27.472Z,98563.59
2022-08-05T03:01:00.920Z,98584.75
2022-08-05T03:03:34.340Z,98583.44
2022-08-05T03:09:05.175Z,98581.75
2022-08-05T03:11:56.529Z,98577.13
2022-08-05T03:14:21.577Z,98576.47
2022-08-05T03:16:48.501Z,98587.84
2022-08-05T03:19:29.412Z,98591.16
2022-08-05T03:22:00.587Z,98589.19
2022-08-05T03:24:30.640Z,98596.94
2022-08-05T03:26:58.984Z,98595.66
2022-08-05T03:29:44.625Z,98597.44
2022-08-05T03:32:15.368Z,98593.13
2022-08-05T03:34:50.945Z,98600.59
2022-08-05T03:37:20.794Z,98599.25
2022-08-05T03:40:01.458Z,98616.47
2022-08-05T03:42:32.448Z,98615.78
2022-08-05T03:45:01.899Z,98617.59
2022-08-05T03:47:46.976Z,98608.53
2022-08-05T03:50:16.259Z,98618.59
2022-08-05T03:55:49.730Z,98617.41
2022-08-05T03:56:26.953Z,98631.31
2022-08-05T03:59:03.583Z,98622.03
2022-08-05T04:01:37.788Z,98625.16
2022-08-05T04:04:09.723Z,98614.38
2022-08-05T04:06:38.534Z,98607.13
2022-08-05T04:09:25.953Z,98588.13
2022-08-05T04:11:56.447Z,98601.19
2022-08-05T04:14:30.343Z,98594.56
2022-08-05T04:17:00.014Z,98611.41
2022-08-05T04:19:29.211Z,98609.09
2022-08-05T04:22:08.561Z,98616.66
2022-08-05T04:24:52.632Z,98616.31
2022-08-05T04:27:33.240Z,98625.53
2022-08-05T04:30:08.767Z,98649.53
2022-08-05T04:32:35.965Z,98640.25
2022-08-05T04:35:04.758Z,98659.94
2022-08-05T04:38:00.743Z,98640.59
2022-08-05T04:40:20.859Z,98659.63
2022-08-05T04:42:47.725Z,98652.97
2022-08-05T04:45:31.377Z,98668.06
2022-08-05T04:48:18.625Z,98674.81
2022-08-05T04:51:02.716Z,98687.06
2022-08-05T04:53:33.682Z,98691.19
2022-08-05T04:56:32.624Z,98699.63
2022-08-05T04:58:50.125Z,98704.91
2022-08-05T05:02:06.263Z,98719.91
2022-08-05T05:04:05.031Z,98718.66
2022-08-05T05:06:40.375Z,98740.50
2022-08-05T05:09:13.981Z,98747.31
2022-08-05T05:11:54.662Z,98742.88
2022-08-05T05:14:31.287Z,98746.63
2022-08-05T05:17:00.567Z,98789.94
2022-08-05T05:19:36.867Z,98810.56
2022-08-05T05:22:24.473Z,98816.84
2022-08-05T05:24:58.433Z,98812.53
2022-08-05T05:27:41.691Z,98813.38
2022-08-05T05:30:30.616Z,98806.28
2022-08-05T05:33:03.755Z,98800.84
2022-08-05T05:35:42.709Z,98802.47
2022-08-05T05:38:13.094Z,98820.19
2022-08-05T05:40:48.086Z,98825.50
2022-08-05T05:43:22.334Z,98819.53
2022-08-05T05:45:55.129Z,98834.47
2022-08-05T05:48:27.307Z,98834.28
2022-08-05T05:50:54.687Z,98848.03
2022-08-05T05:53:22.224Z,98853.31
2022-08-05T05:55:51.493Z,98852.84
2022-08-05T05:58:31.844Z,98864.84
2022-08-05T06:01:13.093Z,98870.34
2022-08-05T06:04:00.903Z,98872.38
2022-08-05T06:06:30.942Z,98877.75
2022-08-05T06:08:59.148Z,98876.44
2022-08-05T06:11:26.247Z,98865.84
2022-08-05T06:13:56.211Z,98870.50
2022-08-05T06:16:30.123Z,98866.88
2022-08-05T06:19:01.999Z,98863.22
2022-08-05T06:21:36.523Z,98863.28
2022-08-05T06:24:11.273Z,98855.69
2022-08-05T06:26:51.049Z,98832.19
2022-08-05T06:29:25.349Z,98843.63
2022-08-05T06:32:25.493Z,98861.81
2022-08-05T06:34:56.173Z,98855.84
2022-08-05T06:37:57.895Z,98866.94
2022-08-05T06:40:13.704Z,98860.00
2022-08-05T06:42:40.961Z,98843.81
2022-08-05T06:45:09.352Z,98854.38
2022-08-05T06:48:36.902Z,98861.41
2022-08-05T06:50:24.911Z,98844.00
2022-08-05T06:53:04.015Z,98845.19
2022-08-05T06:55:38.607Z,98844.84
2022-08-05T06:58:29.177Z,98843.88
2022-08-05T07:01:02.976Z,98847.16
2022-08-05T07:03:32.533Z,98850.50
2022-08-05T07:06:06.196Z,98841.22
2022-08-05T07:08:47.191Z,98855.31
2022-08-05T07:11:15.318Z,98836.25
2022-08-05T07:14:02.088Z,98845.72
2022-08-05T07:17:57.033Z,98843.53
2022-08-05T07:22:29.078Z,98849.53
2022-08-05T07:25:24.079Z,98866.38
2022-08-05T07:27:59.616Z,98873.50
2022-08-05T07:30:33.922Z,98867.06
2022-08-05T07:33:04.960Z,98874.50
2022-08-05T07:36:02.762Z,98868.38
2022-08-05T07:38:32.388Z,98874.69
2022-08-05T07:42:07.698Z,98887.13
2022-08-05T07:43:58.574Z,98882.97
2022-08-05T07:46:29.170Z,98874.34
2022-08-05T07:49:05.378Z,98886.97
2022-08-05T07:51:48.482Z,98891.91
2022-08-05T07:54:23.132Z,98884.31
2022-08-05T07:57:02.704Z,98890.59
2022-08-05T07:59:41.217Z,98879.19
2022-08-05T08:02:16.169Z,98907.66
2022-08-05T08:04:49.240Z,98907.31
2022-08-05T08:07:22.472Z,98902.66
2022-08-05T08:09:52.169Z,98901.66
2022-08-05T08:12:37.447Z,98897.19
2022-08-05T08:15:15.553Z,98896.50
2022-08-05T08:17:46.148Z,98888.22
2022-08-05T08:20:44.174Z,98887.91
2022-08-05T08:23:04.305Z,98898.84
2022-08-05T08:25:59.258Z,98899.47
2022-08-05T08:28:36.137Z,98892.19
2022-08-05T08:31:06.484Z,98895.28
2022-08-05T08:33:37.834Z,98888.84
2022-08-05T08:38:55.624Z,98899.63
2022-08-05T08:41:26.109Z,98886.19
2022-08-05T08:45:20.620Z,98896.78
2022-08-05T08:47:21.911Z,98896.78
2022-08-05T08:50:06.178Z,98884.50
2022-08-05T08:52:51.797Z,98875.88
2022-08-05T08:56:02.913Z,98875.16
2022-08-05T08:58:10.165Z,98864.00
2022-08-05T09:00:41.270Z,98866.47
2022-08-05T09:03:09.743Z,98862.19
2022-08-05T09:05:38.837Z,98846.41
2022-08-05T09:08:27.337Z,98835.28
2022-08-05T09:10:54.710Z,98855.31
2022-08-05T09:13:23.620Z,98867.38
2022-08-05T09:15:51.461Z,98858.44
2022-08-05T09:18:18.717Z,98852.94
2022-08-05T09:20:47.119Z,98834.53
2022-08-05T09:23:19.881Z,98846.09
2022-08-05T09:26:08.523Z,98848.03
2022-08-05T09:28:40.406Z,98847.66
2022-08-05T09:31:43.975Z,98832.75
2022-08-05T09:34:11.205Z,98811.56
2022-08-05T09:36:54.726Z,98827.25
2022-08-05T09:39:27.513Z,98822.28
2022-08-05T09:42:07.883Z,98821.66
2022-08-05T09:44:50.400Z,98814.34
2022-08-05T09:47:36.506Z,98818.81
2022-08-05T09:50:18.254Z,98811.03
2022-08-05T09:53:01.038Z,98816.34
2022-08-05T09:55:58.278Z,98799.13
2022-08-05T09:58:15.768Z,98802.06
2022-08-05T10:01:13.409Z,98807.44
2022-08-05T10:03:59.453Z,98797.56
2022-08-05T10:06:28.111Z,98799.03
2022-08-05T10:08:56.221Z,98798.56
2022-08-05T10:11:23.714Z,98787.59
2022-08-05T10:13:58.200Z,98801.34
2022-08-05T10:16:41.863Z,98809.34
2022-08-05T10:19:23.594Z,98795.44
2022-08-05T10:21:59.012Z,98803.63
2022-08-05T10:24:27.189Z,98789.59
2022-08-05T10:27:00.315Z,98790.84
2022-08-05T10:30:06.559Z,98805.50
2022-08-05T10:32:55.448Z,98790.34
2022-08-05T10:35:04.065Z,98803.75
2022-08-05T10:37:44.475Z,98790.78
2022-08-05T10:40:27.992Z,98792.44
2022-08-05T10:43:04.901Z,98798.97
2022-08-05T10:45:41.654Z,98778.13
2022-08-05T10:48:52.762Z,98789.13
2022-08-05T10:51:29.015Z,98781.88
2022-08-05T10:54:00.961Z,98787.75
2022-08-05T10:56:31.176Z,98780.88
2022-08-05T10:59:11.434Z,98785.63
2022-08-05T11:01:54.809Z,98782.56
2022-08-05T11:04:28.459Z,98779.78
2022-08-05T11:06:58.070Z,98779.00
2022-08-05T11:09:32.008Z,98784.50
2022-08-05T11:12:29.138Z,98785.78
2022-08-05T11:16:00.894Z,98790.41
2022-08-05T11:18:32.462Z,98791.72
2022-08-05T11:20:59.835Z,98798.97
2022-08-05T11:24:05.717Z,98792.16
2022-08-05T11:26:39.435Z,98791.78
2022-08-05T11:29:13.765Z,98796.47
2022-08-05T11:31:58.329Z,98789.00
2022-08-05T11:34:39.489Z,98793.88
2022-08-05T11:38:36.482Z,98787.66
2022-08-05T11:39:55.292Z,98792.34
2022-08-05T11:42:28.495Z,98786.56
2022-08-05T11:45:05.890Z,98778.81
2022-08-05T11:47:54.515Z,98794.63
2022-08-05T11:50:22.539Z,98800.13
2022-08-05T11:52:52.039Z,98792.13
2022-08-05T11:55:21.391Z,98787.66
2022-08-05T11:58:10.289Z,98771.50
2022-08-05T12:00:41.318Z,98786.81
2022-08-05T12:03:28.570Z,98781.78
2022-08-05T12:06:01.751Z,98778.34
2022-08-05T12:08:28.955Z,98783.47
2022-08-05T12:11:05.459Z,98773.69
2022-08-05T12:13:48.711Z,98769.09
2022-08-05T12:16:19.720Z,98766.34
2022-08-05T12:18:52.280Z,98758.31
2022-08-05T12:21:33.262Z,98748.66
2022-08-05T12:24:18.830Z,98760.72
2022-08-05T12:26:52.637Z,98755.44
2022-08-05T12:29:26.459Z,98761.81
2022-08-05T12:32:01.776Z,98757.19
2022-08-05T12:34:35.694Z,98741.25
2022-08-05T12:37:17.217Z,98744.53
2022-08-05T12:39:51.032Z,98739.03
2022-08-05T12:42:20.459Z,98731.25
2022-08-05T12:44:48.127Z,98739.66
2022-08-05T12:47:28.844Z,98720.28
2022-08-05T12:50:03.448Z,98730.19
2022-08-05T12:52:42.528Z,98733.03
2022-08-05T12:55:26.314Z,98726.44
2022-08-05T12:58:49.312Z,98720.72
2022-08-05T13:02:01.963Z,98716.47
2022-08-05T13:03:42.482Z,98720.84
2022-08-05T13:06:16.147Z,98716.44
2022-08-05T13:08:51.506Z,98709.69
2022-08-05T13:11:25.514Z,98705.22
2022-08-05T13:14:36.536Z,98703.28
2022-08-05T13:17:15.974Z,98697.34
2022-08-05T13:20:06.830Z,98704.72
2022-08-05T13:22:38.425Z,98696.75
2022-08-05T13:25:18.675Z,98695.09
2022-08-05T13:27:54.242Z,98698.16
2022-08-05T13:30:36.120Z,98696.97
2022-08-05T13:33:05.862Z,98662.19
2022-08-05T13:35:50.419Z,98675.41
2022-08-05T13:38:30.635Z,98684.31
2022-08-05T13:41:01.094Z,98683.47
2022-08-05T13:43:44.303Z,98680.84
2022-08-05T13:46:16.362Z,98671.34
2022-08-05T13:49:00.705Z,98663.94
2022-08-05T13:51:40.466Z,98643.84
2022-08-05T13:54:13.652Z,98653.59
2022-08-05T13:56:45.064Z,98658.72
2022-08-05T13:59:20.231Z,98646.19
2022-08-05T14:01:57.363Z,98640.66
2022-08-05T14:04:50.391Z,98651.81
2022-08-05T14:07:25.634Z,98652.78
2022-08-05T14:10:28.951Z,98644.72
2022-08-05T14:12:57.752Z,98646.16
2022-08-05T14:16:08.238Z,98629.59
2022-08-05T14:18:17.608Z,98626.56
2022-08-05T14:20:49.027Z,98634.47
2022-08-05T14:23:25.161Z,98644.41
2022-08-05T14:25:58.523Z,98634.97
2022-08-05T14:28:28.789Z,98629.94
2022-08-05T14:30:57.705Z,98633.59
2022-08-05T14:33:24.618Z,98641.72
2022-08-05T14:35:53.992Z,98648.34
2022-08-05T14:38:33.126Z,98630.13
2022-08-05T14:41:06.099Z,98641.66
2022-08-05T14:44:01.999Z,98635.38
2022-08-05T14:46:28.746Z,98645.88
2022-08-05T14:49:06.874Z,98657.59
2022-08-05T14:51:37.576Z,98651.00
2022-08-05T14:54:28.818Z,98636.00
2022-08-05T14:56:56.393Z,98650.00
2022-08-05T14:59:23.795Z,98650.25
2022-08-05T15:01:50.896Z,98650.06
2022-08-05T15:04:20.742Z,98651.69
2022-08-05T15:06:53.120Z,98651.06
2022-08-05T15:09:52.403Z,98658.28
2022-08-05T15:12:09.545Z,98657.25
2022-08-05T15:14:48.100Z,98680.91
2022-08-05T15:17:45.961Z,98691.22
2022-08-05T15:20:07.566Z,98701.69
2022-08-05T15:22:37.246Z,98705.59
2022-08-05T15:25:11.459Z,98703.97
2022-08-05T15:27:38.646Z,98663.00
2022-08-05T15:30:10.987Z,98652.13
2022-08-05T15:32:41.076Z,98662.19
2022-08-05T15:35:10.697Z,98694.47
2022-08-05T15:38:33.217Z,98690.75
2022-08-05T15:40:59.682Z,98697.94
2022-08-05T15:43:20.025Z,98713.75
2022-08-05T15:45:47.569Z,98710.69
2022-08-05T15:48:15.203Z,98728.75
2022-08-05T15:50:43.743Z,98731.41
2022-08-05T15:53:15.711Z,98721.47
2022-08-05T15:56:02.762Z,98726.00
2022-08-05T15:58:35.692Z,98722.28
2022-08-05T16:01:16.381Z,98708.09
2022-08-05T16:03:50.303Z,98691.44
2022-08-05T16:06:20.336Z,98714.69
2022-08-05T16:08:51.195Z,98701.50
2022-08-05T16:11:42.521Z,98709.94
2022-08-05T16:14:07.787Z,98706.19
2022-08-05T16:16:36.252Z,98702.94
2022-08-05T16:19:03.601Z,98701.25
2022-08-05T16:22:01.113Z,98722.44
2022-08-05T16:24:39.536Z,98728.41
2022-08-05T16:27:04.883Z,98733.38
2022-08-05T16:29:37.012Z,98752.63
2022-08-05T16:32:06.531Z,98761.66
2022-08-05T16:34:37.097Z,98770.25
2022-08-05T16:38:03.656Z,98764.09
2022-08-05T16:40:05.647Z,98776.00
2022-08-05T16:42:35.110Z,98756.44
2022-08-05T16:45:05.895Z,98758.31
2022-08-05T16:47:54.213Z,98759.81
2022-08-05T16:50:22.579Z,98773.81
2022-08-05T16:52:49.411Z,98775.47
2022-08-05T16:55:16.662Z,98779.72
2022-08-05T16:58:00.215Z,98780.50
2022-08-05T17:00:35.024Z,98781.28
2022-08-05T17:03:09.208Z,98781.44
2022-08-05T17:05:48.993Z,98783.25
2022-08-05T17:08:35.903Z,98788.97
2022-08-05T17:11:08.774Z,98805.53
2022-08-05T17:13:37.289Z,98790.72
2022-08-05T17:16:29.819Z,98779.22
2022-08-05T17:18:55.268Z,98796.84
2022-08-05T17:21:23.697Z,98784.06
2022-08-05T17:24:05.535Z,98790.38
2022-08-05T17:26:39.033Z,98789.81
2022-08-05T17:29:10.125Z,98808.72
2022-08-05T17:31:41.314Z,98813.03
2022-08-05T17:34:30.190Z,98823.06
2022-08-05T17:37:00.128Z,98816.41
2022-08-05T17:39:33.192Z,98823.31
2022-08-05T17:42:19.011Z,98834.81
2022-08-05T17:44:50.485Z,98819.88
2022-08-05T17:47:22.502Z,98834.78
2022-08-05T17:49:59.943Z,98845.38
2022-08-05T17:52:35.043Z,98840.84
2022-08-05T17:55:21.375Z,98847.47
2022-08-05T17:57:48.508Z,98845.56
2022-08-05T18:00:17.371Z,98852.00
2022-08-05T18:02:47.147Z,98857.69
2022-08-05T18:05:16.958Z,98860.56
2022-08-05T18:07:44.794Z,98874.94
2022-08-05T18:10:20.630Z,98882.94
2022-08-05T18:12:49.177Z,98875.41
2022-08-05T18:15:16.187Z,98894.81
2022-08-05T18:18:01.310Z,98882.03
2022-08-05T18:20:32.112Z,98882.31
2022-08-05T18:23:09.403Z,98906.34
2022-08-05T18:25:39.871Z,98907.56
2022-08-05T18:28:16.186Z,98904.59
2022-08-05T18:30:45.654Z,98885.75
2022-08-05T18:33:23.057Z,98920.63
2022-08-05T18:36:03.821Z,98926.38
2022-08-05T18:38:37.214Z,98922.13
2022-08-05T18:41:53.514Z,98945.50
2022-08-05T18:43:52.926Z,98950.53
2022-08-05T18:46:20.689Z,98968.63
2022-08-05T18:48:52.003Z,98961.16
2022-08-05T18:52:05.359Z,98979.97
2022-08-05T18:54:31.069Z,98972.63
2022-08-05T18:57:01.357Z,98975.47
2022-08-05T18:59:44.200Z,98996.72
2022-08-05T19:02:36.557Z,99000.34
2022-08-05T19:06:05.631Z,98998.06
2022-08-05T19:07:53.190Z,98993.75
2022-08-05T19:10:28.027Z,98982.16
2022-08-05T19:12:55.139Z,98991.81
2022-08-05T19:15:58.229Z,99004.09
2022-08-05T19:18:13.418Z,98971.97
2022-08-05T19:20:48.777Z,99022.06
2022-08-05T19:24:03.575Z,99032.03
2022-08-05T19:26:03.101Z,99026.09
2022-08-05T19:28:31.244Z,99031.03
2022-08-05T19:31:00.254Z,99020.66
2022-08-05T19:33:35.514Z,99018.16
2022-08-05T19:36:06.403Z,99016.00
2022-08-05T19:38:37.118Z,99014.88
2022-08-05T19:41:08.994Z,99033.91
2022-08-05T19:44:06.984Z,99043.56
2022-08-05T19:46:29.427Z,99035.44
2022-08-05T19:49:03.503Z,99051.19
2022-08-05T19:52:08.740Z,99062.94
2022-08-05T19:54:25.606Z,99069.25
2022-08-05T19:57:02.256Z,99059.13
2022-08-05T19:59:55.446Z,99046.03
2022-08-05T20:02:17.884Z,99074.06
2022-08-05T20:04:45.955Z,99070.75
2022-08-05T20:07:14.248Z,99083.16
2022-08-05T20:09:53.785Z,99073.88
2022-08-05T20:12:23.841Z,99079.50
2022-08-05T20:14:52.848Z,99080.31
2022-08-05T20:17:23.533Z,99085.94
2022-08-05T20:19:57.054Z,99083.13
2022-08-05T20:22:26.912Z,99084.81
2022-08-05T20:24:55.745Z,99092.88
2022-08-05T20:27:26.694Z,99095.97
2022-08-05T20:29:58.575Z,99090.69
2022-08-05T20:32:27.108Z,99119.84
2022-08-05T20:34:54.519Z,99115.22
2022-08-05T20:38:04.856Z,99117.47
2022-08-05T20:40:09.285Z,99124.06
2022-08-05T20:42:36.384Z,99139.59
2022-08-05T20:45:05.272Z,99141.44
2022-08-05T20:47:33.245Z,99128.97
2022-08-05T20:50:01.805Z,99120.13
2022-08-05T20:52:29.939Z,99148.44
2022-08-05T20:55:54.283Z,99157.50
2022-08-05T20:57:45.047Z,99153.78
2022-08-05T21:00:40.986Z,99170.72
2022-08-05T21:03:07.969Z,99178.81
2022-08-05T21:05:47.741Z,99183.13
2022-08-05T21:08:35.809Z,99194.00
2022-08-05T21:11:11.948Z,99201.13
2022-08-05T21:13:47.883Z,99202.56
2022-08-05T21:16:23.197Z,99218.78
2022-08-05T21:19:01.230Z,99216.66
2022-08-05T21:21:44.122Z,99239.78
2022-08-05T21:24:19.519Z,99225.44
2022-08-05T21:26:53.597Z,99234.41
2022-08-05T21:29:31.703Z,99260.28
2022-08-05T21:32:00.783Z,99247.41
2022-08-05T21:34:28.224Z,99259.53
2022-08-05T21:36:55.203Z,99251.44
2022-08-05T21:39:26.515Z,99247.44
2022-08-05T21:42:01.034Z,99261.31
2022-08-05T21:44:30.393Z,99251.81
2022-08-05T21:46:58.498Z,99232.63
2022-08-05T21:50:00.007Z,99237.53
2022-08-05T21:52:22.711Z,99230.22
2022-08-05T21:54:55.965Z,99238.84
2022-08-05T21:57:31.969Z,99237.59
2022-08-05T22:00:06.207Z,99253.59
2022-08-05T22:02:34.575Z,99272.50
2022-08-05T22:05:01.770Z,99259.75
2022-08-05T22:07:40.081Z,99275.16
2022-08-05T22:10:26.921Z,99273.75
2022-08-05T22:12:59.165Z,99281.69
2022-08-05T22:16:02.729Z,99269.78
2022-08-05T22:18:24.866Z,99271.44
2022-08-05T22:20:52.992Z,99288.13
2022-08-05T22:24:01.836Z,99280.41
2022-08-05T22:26:49.929Z,99298.44
2022-08-05T22:29:18.837Z,99298.19
2022-08-05T22:31:55.128Z,99296.25
2022-08-05T22:34:28.626Z,99309.16
2022-08-05T22:36:58.242Z,99321.97
2022-08-05T22:39:33.200Z,99314.84
2022-08-05T22:42:12.343Z,99317.94
2022-08-05T22:44:56.323Z,99333.06
2022-08-05T22:47:29.184Z,99345.59
2022-08-05T22:50:20.111Z,99352.28
2022-08-05T22:52:44.156Z,99348.50
2022-08-05T22:55:19.499Z,99329.06
2022-08-05T22:57:49.338Z,99346.03
2022-08-05T23:00:17.819Z,99353.22
2022-08-05T23:02:48.136Z,99339.34
2022-08-05T23:05:15.824Z,99352.41
2022-08-05T23:07:45.187Z,99348.38
2022-08-05T23:10:16.374Z,99361.56
2022-08-05T23:12:51.144Z,99359.94
2022-08-05T23:15:21.134Z,99360.19
2022-08-05T23:18:00.671Z,99357.69
2022-08-05T23:20:28.862Z,99353.25
2022-08-05T23:22:56.584Z,99353.81
2022-08-05T23:25:53.523Z,99373.25
2022-08-05T23:28:12.925Z,99356.88
2022-08-05T23:30:53.414Z,99359.09
2022-08-05T23:33:25.830Z,99355.91
2022-08-05T23:36:06.158Z,99381.06
2022-08-05T23:38:36.996Z,99376.19
2022-08-05T23:41:03.785Z,99379.66
2022-08-05T23:44:04.403Z,99389.94
2022-08-05T23:46:20.201Z,99380.47
2022-08-05T23:49:01.051Z,99386.31
2022-08-05T23:51:53.596Z,99390.34
2022-08-05T23:54:30.322Z,99397.84
2022-08-05T23:57:03.712Z,99398.28
